Nearby METAR Reports

 

KSJC - San Jose, California, USA
Distance from station: NE 14km
Dati ricevuti: 12/11/2019 22:53
Few Clouds
Few Clouds
 Vento da calm
Vento: Calma
Temperatura: 14°C
P.to Rugiada: 9°C
Umidità: 72%
Barometro: 1016.9 hPa
Clouds: Few Clouds
Visibility: 16 km
Cloud details: Few Clouds 1067 m
Few Clouds 5486 m
2019/11/13 06:53 KSJC 130653Z 00000KT 10SM FEW035 FEW180 14/09 A3003 RMK AO2 SLP166 T01440094
KNUQ - Moffett Nas/Mtn, California, USA
Distance from station: N 14km
Dati ricevuti: 12/11/2019 22:56

 
Barometro: 1016.9 hPa
2019/11/13 06:56 KNUQ 130656Z A3003 RMK AO2 SLP173 PWINO $
 
KPAO - Palo Alto, California, USA
Distance from station: NNO 23km
Dati ricevuti: 12/11/2019 20:47
NOT Current
Sereno
Sereno
 Vento da NO
Vento: NO 7 km/h
Temperatura: 12°C
P.to Rugiada: 8°C
Umidità: 77%
Barometro: 1016.3 hPa
Clouds: Sereno
Visibility: 16 km
2019/11/13 04:47 KPAO 130447Z 31004KT 10SM SKC 12/08 A3001 RMK LAST
KRHV - San Jose/Reid, California, USA
Distance from station: ENE 19km
Dati ricevuti: 12/11/2019 21:47
NOT Current
Few Clouds
Few Clouds
 Vento da calm
Vento: Calma
Temperatura: 14°C
P.to Rugiada: 8°C
Umidità: 67%
Barometro: 1016.9 hPa
Clouds: Few Clouds
Visibility: 16 km
Cloud details: Few Clouds 4572 m
2019/11/13 05:47 KRHV 130547Z 00000KT 10SM FEW150 14/08 A3003 RMK LAST
 
KOAK - Oakland, California, USA
Distance from station: NNO 50km
Dati ricevuti: 12/11/2019 22:53
Few Clouds
Few Clouds
 Vento da N
Vento: N 7 km/h
Temperatura: 12°C
P.to Rugiada: 9°C
Umidità: 82%
Barometro: 1016.9 hPa
Clouds: Few Clouds
Visibility: 16 km
Cloud details: Few Clouds 6096 m
2019/11/13 06:53 KOAK 130653Z 35004KT 10SM FEW200 12/09 A3003 RMK AO2 SLP168 T01170094
KSQL - San Carlos Airpo, California, USA
Distance from station: NO 34km
Dati ricevuti: 12/11/2019 23:20
Sereno
Sereno
 Vento da calm
Vento: Calma
Temperatura: 13°C
P.to Rugiada: 9°C
Umidità: 77%
Barometro: 1016.9 hPa
Clouds: Sereno
Visibility: 16 km
2019/11/13 07:20 KSQL 130720Z AUTO 00000KT 10SM CLR 13/09 A3003 RMK AO2
 
KSFO - San Francisco, California, USA
Distance from station: NO 49km
Dati ricevuti: 12/11/2019 22:56
Few Clouds
Few Clouds
 Vento da ONO
Vento: ONO 19 km/h
Temperatura: 12°C
P.to Rugiada: 9°C
Umidità: 82%
Barometro: 1016.6 hPa
Clouds: Few Clouds
Visibility: 14 km
Cloud details: Few Clouds 122 m
Few Clouds 6096 m
2019/11/13 06:56 KSFO 130656Z 29010KT 9SM FEW004 FEW200 12/09 A3002 RMK AO2 SLP164 T01170089
KE16 - San Martin, California, USA
Distance from station: ESE 43km
Dati ricevuti: 12/11/2019 23:10

 Vento da calm
Vento: Calma
Temperatura: 10°C
P.to Rugiada: 8°C
Umidità: 88%
Barometro: 1017.6 hPa
Visibility: 16 km
2019/11/13 07:10 KE16 130710Z AUTO 00000KT 10SM 10/08 A3005 RMK AO2
 
KWVI - Watsonville, California, USA
Distance from station: SSE 44km
Dati ricevuti: 12/11/2019 22:53
Nebbia, Coperto
Nebbia, Coperto
 Vento da calm
Vento: Calma
Temperatura: 11°C
P.to Rugiada: 10°C
Umidità: 94%
Barometro: 1017.6 hPa
Summary: Nebbia
Clouds: Coperto
Visibility: 0.4 km
Cloud details: Coperto 61 m
2019/11/13 06:53 KWVI 130653Z AUTO 00000KT 1/4SM FG VV002 11/10 A3005 RMK AO2 SLP174 T01060100
KHAF - Half Moon Bay, California, USA
Distance from station: ONO 50km
Dati ricevuti: 12/11/2019 23:20
Nebbia, Coperto
Nebbia, Coperto
 Vento da ENE
Vento: ENE 6 km/h
Temperatura: 8°C
P.to Rugiada: 8°C
Umidità: 100%
Barometro: 1017.3 hPa
Summary: Nebbia
Clouds: Coperto
Visibility: 0.4 km
Cloud details: Coperto 61 m
2019/11/13 07:20 KHAF 130720Z AUTO 06003KT M1/4SM FG OVC002 08/08 A3004 RMK AO2 VSBY M1/4V5
 
KHWD - Hayward, California, USA
Distance from station: N 44km
Dati ricevuti: 12/11/2019 22:54
Sereno
Sereno
 Vento da calm
Vento: Calma
Temperatura: 12°C
P.to Rugiada: 9°C
Umidità: 82%
Barometro: 1016.6 hPa
Clouds: Sereno
Visibility: 16 km
2019/11/13 06:54 KHWD 130654Z AUTO 00000KT 10SM CLR 12/09 A3002 RMK AO2 SLP175 T01220094
KLVK - Livermore, California, USA
Distance from station: NNE 51km
Dati ricevuti: 12/11/2019 22:53
Sereno
Sereno
 Vento da calm
Vento: Calma
Temperatura: 12°C
P.to Rugiada: 4°C
Umidità: 58%
Barometro: 1016.6 hPa
Clouds: Sereno
Visibility: 13 km
2019/11/13 06:53 KLVK 130653Z AUTO 00000KT 8SM CLR 12/04 A3002 RMK AO2 SLP163 T01170039